Time;durP1;ratioP1;P1;durP2;ratioP2;P2;SDS_P1;SDS_P2;PMS_P1;PMS_P2;Temp;Humidity;BMP_temperature;BMP_pressure;BME280_temperature;BME280_humidity;BME280_pressure;Samples;Min_cycle;Max_cycle;Signal;HPM_P1;HPM_P2
2022/12/29 00:00:05;;;;;;;2.08;1.00;;;;;;;;;;5012982;28;20058;-75
2022/12/29 00:02:32;;;;;;;1.42;1.00;;;;;;;;;;5012573;28;20466;-75
2022/12/29 00:04:59;;;;;;;1.17;1.02;;;;;;;;;;5013227;28;20058;-75
2022/12/29 00:07:27;;;;;;;1.73;1.25;;;;;;;;;;5013637;28;20148;-75
2022/12/29 00:09:55;;;;;;;1.63;1.23;;;;;;;;;;5030807;28;20084;-75
2022/12/29 00:12:22;;;;;;;1.10;1.00;;;;;;;;;;5033624;28;20075;-76
2022/12/29 00:17:33;;;;;;;1.52;1.10;;;;;;;;;;5032153;28;20046;-75
2022/12/29 00:36:30;;;;;;;3.17;1.17;;;;;;;;;;5031433;28;20041;-75
2022/12/29 00:44:28;;;;;;;1.70;1.25;;;;;;;;;;5031901;28;20077;-75
2022/12/29 00:46:55;;;;;;;1.30;1.00;;;;;;;;;;5031957;28;20049;-75
2022/12/29 00:49:31;;;;;;;1.40;1.13;;;;;;;;;;5031813;28;20088;-75
2022/12/29 00:51:59;;;;;;;1.65;1.20;;;;;;;;;;5031459;28;20057;-75
2022/12/29 00:54:28;;;;;;;2.38;1.20;;;13.90;72.20;;;;;;5031404;28;20060;-75
2022/12/29 00:56:55;;;;;;;1.90;1.13;;;;;;;;;;5031927;28;20049;-75
2022/12/29 00:59:23;;;;;;;2.03;1.20;;;;;;;;;;5031630;28;20490;-75
2022/12/29 01:01:50;;;;;;;1.15;1.00;;;;;;;;;;5031892;28;20053;-75
2022/12/29 01:04:18;;;;;;;1.38;1.10;;;;;;;;;;5031185;28;20057;-75
2022/12/29 01:06:45;;;;;;;1.25;1.10;;;;;;;;;;5031478;28;20049;-75
2022/12/29 01:11:58;;;;;;;1.80;1.10;;;;;;;;;;5031583;28;20049;-75
2022/12/29 01:14:25;;;;;;;2.15;1.10;;;;;;;;;;5031296;28;20053;-75
2022/12/29 01:16:52;;;;;;;1.35;1.00;;;;;;;;;;5031528;28;20061;-74
2022/12/29 01:19:19;;;;;;;1.90;1.10;;;;;;;;;;5030039;28;20051;-75
2022/12/29 01:21:46;;;;;;;1.55;1.05;;;;;;;;;;5031622;28;20053;-75
2022/12/29 01:24:13;;;;;;;1.08;0.98;;;;;;;;;;5031230;28;20144;-75
2022/12/29 01:26:40;;;;;;;1.50;1.05;;;;;;;;;;5031171;28;20057;-75
2022/12/29 01:29:09;;;;;;;1.05;0.98;;;;;;;;;;5031141;28;20402;-75
2022/12/29 01:31:36;;;;;;;1.25;1.08;;;;;;;;;;5031387;28;20063;-75
2022/12/29 01:34:03;;;;;;;1.17;1.05;;;;;;;;;;5018435;28;20068;-75
2022/12/29 01:36:30;;;;;;;1.95;1.42;;;;;;;;;;5013541;28;20073;-75
2022/12/29 01:38:57;;;;;;;1.15;1.05;;;;;;;;;;5011156;28;20053;-74
2022/12/29 01:41:25;;;;;;;1.40;1.10;;;;;;;;;;5011309;28;20064;-75
2022/12/29 01:43:52;;;;;;;2.17;1.10;;;;;;;;;;5011306;28;20057;-75
2022/12/29 01:46:23;;;;;;;1.25;1.08;;;;;;;;;;5011380;28;20057;-75
2022/12/29 01:48:50;;;;;;;1.92;1.13;;;;;;;;;;5023619;28;20053;-75
2022/12/29 01:51:17;;;;;;;1.90;1.20;;;;;;;;;;5030288;28;20132;-75
2022/12/29 01:53:44;;;;;;;1.10;1.00;;;;;;;;;;5030596;28;20417;-75
2022/12/29 01:56:12;;;;;;;3.60;1.20;;;;;;;;;;5030845;28;20063;-75
2022/12/29 01:58:39;;;;;;;1.60;1.50;;;;;;;;;;5030749;28;20046;-75
2022/12/29 02:01:06;;;;;;;1.40;1.15;;;;;;;;;;5030761;28;20067;-75
2022/12/29 02:03:35;;;;;;;0.90;0.90;;;;;;;;;;5030433;28;20057;-75
2022/12/29 02:06:04;;;;;;;1.20;1.10;;;13.80;72.50;;;;;;5030271;28;20053;-75
2022/12/29 02:08:31;;;;;;;1.52;1.10;;;;;;;;;;5030892;28;20132;-75
2022/12/29 02:10:58;;;;;;;1.25;1.08;;;;;;;;;;5030913;28;20049;-75
2022/12/29 02:13:26;;;;;;;0.82;0.82;;;;;;;;;;5030290;28;20060;-75
2022/12/29 02:15:57;;;;;;;2.10;1.17;;;13.70;70.80;;;;;;5030796;28;20525;-75
2022/12/29 02:18:27;;;;;;;1.30;1.20;;;;;;;;;;5030661;28;20163;-75
2022/12/29 02:21:10;;;;;;;1.48;1.20;;;;;;;;;;5030302;28;20135;-75
2022/12/29 02:23:49;;;;;;;0.93;0.90;;;13.70;72.20;;;;;;5030255;28;20057;-75
2022/12/29 02:26:31;;;;;;;1.25;1.00;;;;;;;;;;5030573;28;20068;-75
2022/12/29 02:29:14;;;;;;;1.27;1.10;;;13.70;72.70;;;;;;5030828;28;20064;-75
2022/12/29 02:31:43;;;;;;;1.10;1.00;;;;;;;;;;5032474;28;20053;-75
2022/12/29 02:34:12;;;;;;;1.10;1.00;;;;;;;;;;5029932;28;20061;-75
2022/12/29 02:36:41;;;;;;;1.52;1.00;;;13.60;72.50;;;;;;5017392;28;20132;-75
2022/12/29 02:39:10;;;;;;;1.10;1.00;;;13.80;72.70;;;;;;5014360;28;20071;-75
2022/12/29 02:41:39;;;;;;;1.33;1.10;;;;;;;;;;5014368;28;20053;-74
2022/12/29 02:44:11;;;;;;;1.25;1.10;;;13.80;72.70;;;;;;5016436;28;20414;-75
2022/12/29 02:46:38;;;;;;;1.10;0.90;;;;;;;;;;5014464;28;20124;-74
2022/12/29 02:49:08;;;;;;;1.30;1.00;;;;;;;;;;5018985;28;20042;-74
2022/12/29 02:51:36;;;;;;;1.45;1.10;;;;;;;;;;5019542;28;20140;-74
2022/12/29 02:56:48;;;;;;;1.25;1.10;;;;;;;;;;5014616;28;20054;-75
2022/12/29 02:59:15;;;;;;;1.10;1.00;;;;;;;;;;5019926;28;20045;-75
2022/12/29 03:02:16;;;;;;;1.50;1.10;;;;;;;;;;5034124;28;20057;-75
2022/12/29 03:04:37;;;;;;;0.90;0.90;;;;;;;;;;5032882;28;20449;-75
2022/12/29 03:07:07;;;;;;;1.10;1.00;;;13.70;72.70;;;;;;5033964;28;20140;-75
2022/12/29 03:09:36;;;;;;;1.27;1.02;;;;;;;;;;5033969;28;20132;-75
2022/12/29 03:12:11;;;;;;;1.27;1.00;;;;;;;;;;5033378;28;20156;-75
2022/12/29 03:17:28;;;;;;;1.30;1.00;;;13.70;72.80;;;;;;5033808;28;20049;-75
2022/12/29 03:19:59;;;;;;;1.60;1.15;;;;;;;;;;5022811;28;20139;-75
2022/12/29 03:22:31;;;;;;;1.40;0.90;;;;;;;;;;5013556;28;20057;-75
2022/12/29 03:24:58;;;;;;;0.80;0.80;;;13.60;72.70;;;;;;5013889;28;20053;-75
2022/12/29 03:27:27;;;;;;;1.10;0.90;;;;;;;;;;5013402;28;20058;-75
2022/12/29 03:29:55;;;;;;;1.70;1.05;;;13.70;72.00;;;;;;5013614;28;20057;-75
2022/12/29 03:32:23;;;;;;;1.15;1.05;;;;;;;;;;5013543;28;20084;-75
2022/12/29 03:34:50;;;;;;;1.05;0.93;;;;;;;;;;5025212;28;20053;-75
2022/12/29 03:37:19;;;;;;;1.13;1.00;;;;;;;;;;5032967;28;20502;-75
2022/12/29 03:39:46;;;;;;;1.00;0.90;;;;;;;;;;5032900;28;20132;-75
2022/12/29 03:42:14;;;;;;;1.63;1.20;;;13.70;72.70;;;;;;5032357;28;20081;-75
2022/12/29 03:44:42;;;;;;;1.17;1.00;;;;;;;;;;5032766;28;20053;-75
2022/12/29 03:47:09;;;;;;;0.90;0.90;;;;;;;;;;5033440;28;20061;-75
2022/12/29 03:49:36;;;;;;;1.58;1.13;;;;;;;;;;5032764;28;20041;-75
2022/12/29 03:52:03;;;;;;;1.38;1.10;;;;;;;;;;5033043;28;20057;-75
2022/12/29 03:54:32;;;;;;;1.08;0.90;;;;;;;;;;5034251;28;20409;-75
2022/12/29 03:56:59;;;;;;;1.65;1.00;;;;;;;;;;5032939;28;20067;-75
2022/12/29 03:59:26;;;;;;;1.08;0.90;;;;;;;;;;5032860;28;20605;-75
2022/12/29 04:01:53;;;;;;;1.30;0.95;;;;;;;;;;5032876;28;20774;-75
2022/12/29 04:04:20;;;;;;;1.00;0.90;;;;;;;;;;5032625;28;20053;-75
2022/12/29 04:06:47;;;;;;;1.10;1.00;;;;;;;;;;5032582;28;20064;-75
2022/12/29 04:09:14;;;;;;;1.27;1.00;;;;;;;;;;5032500;28;20057;-75
2022/12/29 04:11:42;;;;;;;1.10;1.00;;;;;;;;;;5032875;28;20056;-75
2022/12/29 04:14:10;;;;;;;1.10;1.00;;;;;;;;;;5032510;28;20063;-75
2022/12/29 04:16:38;;;;;;;1.10;1.00;;;;;;;;;;5030639;28;20140;-75
2022/12/29 04:19:05;;;;;;;1.02;0.90;;;;;;;;;;5012432;28;20060;-75
2022/12/29 04:21:32;;;;;;;0.95;0.90;;;;;;;;;;5012938;28;20140;-75
2022/12/29 04:23:59;;;;;;;1.10;1.00;;;;;;;;;;5012425;28;20136;-75
2022/12/29 04:26:26;;;;;;;0.90;0.90;;;;;;;;;;5013685;28;20395;-75
2022/12/29 04:28:55;;;;;;;0.80;0.80;;;;;;;;;;5012699;28;20411;-75
2022/12/29 04:31:22;;;;;;;1.10;0.90;;;;;;;;;;5012634;28;20132;-75
2022/12/29 04:33:49;;;;;;;0.93;0.82;;;;;;;;;;5027070;28;20055;-75
2022/12/29 04:36:16;;;;;;;1.48;0.82;;;;;;;;;;5031818;28;20041;-75
2022/12/29 04:38:43;;;;;;;0.95;0.95;;;;;;;;;;5032275;28;20049;-75
2022/12/29 04:41:10;;;;;;;1.48;0.98;;;;;;;;;;5032278;28;20053;-75
2022/12/29 04:43:37;;;;;;;0.90;0.90;;;;;;;;;;5032721;28;20055;-75
2022/12/29 04:46:06;;;;;;;1.00;0.90;;;;;;;;;;5033124;28;20049;-75
2022/12/29 04:48:33;;;;;;;0.80;0.80;;;;;;;;;;5031817;28;20059;-75
2022/12/29 04:51:00;;;;;;;0.98;0.88;;;;;;;;;;5031780;28;20136;-75
2022/12/29 04:53:27;;;;;;;0.95;0.90;;;;;;;;;;5031803;28;20049;-75
2022/12/29 04:55:54;;;;;;;1.15;1.05;;;;;;;;;;5031033;28;20067;-74
2022/12/29 04:58:22;;;;;;;1.65;1.00;;;;;;;;;;5032002;28;20140;-75
2022/12/29 05:00:49;;;;;;;0.90;0.80;;;;;;;;;;5031547;28;20046;-75
2022/12/29 05:03:17;;;;;;;0.80;0.80;;;;;;;;;;5031101;28;20156;-75
2022/12/29 05:05:44;;;;;;;1.60;1.05;;;;;;;;;;5031654;28;20060;-75
2022/12/29 05:08:12;;;;;;;0.93;0.90;;;;;;;;;;5031669;28;20132;-75
2022/12/29 05:10:39;;;;;;;0.80;0.80;;;;;;;;;;5031519;28;20136;-75
2022/12/29 05:13:06;;;;;;;0.80;0.80;;;;;;;;;;5031559;28;20140;-75
2022/12/29 05:15:33;;;;;;;1.02;0.80;;;;;;;;;;5031146;28;20047;-75
2022/12/29 05:18:00;;;;;;;1.33;1.00;;;;;;;;;;5031426;28;20136;-75
2022/12/29 05:20:28;;;;;;;0.80;0.80;;;;;;;;;;5031284;28;20049;-75
2022/12/29 05:22:55;;;;;;;0.88;0.88;;;;;;;;;;5031190;28;20053;-75
2022/12/29 05:25:22;;;;;;;0.80;0.80;;;;;;;;;;5031456;28;20057;-75
2022/12/29 05:27:49;;;;;;;1.33;0.95;;;;;;;;;;5032421;28;20055;-75
2022/12/29 05:30:16;;;;;;;1.00;0.90;;;;;;;;;;5026818;28;20041;-75
2022/12/29 05:32:44;;;;;;;1.05;0.90;;;;;;;;;;5011193;28;20053;-75
2022/12/29 05:35:11;;;;;;;0.98;0.80;;;;;;;;;;5011081;28;20060;-75
2022/12/29 05:37:39;;;;;;;0.80;0.80;;;;;;;;;;5025821;28;20056;-75
2022/12/29 05:40:07;;;;;;;0.85;0.77;;;;;;;;;;5030876;28;20049;-75
2022/12/29 05:42:34;;;;;;;0.93;0.73;;;;;;;;;;5030820;28;20061;-75
2022/12/29 05:45:01;;;;;;;1.00;0.90;;;;;;;;;;5030386;28;20057;-75
2022/12/29 05:47:28;;;;;;;1.50;1.00;;;;;;;;;;5030979;28;20060;-75
2022/12/29 05:49:55;;;;;;;0.80;0.80;;;;;;;;;;5031073;28;20051;-75
2022/12/29 05:52:22;;;;;;;1.33;0.80;;;;;;;;;;5030750;28;20140;-75
2022/12/29 05:54:50;;;;;;;1.02;0.88;;;;;;;;;;5031188;28;20132;-75
2022/12/29 05:57:17;;;;;;;1.02;0.77;;;;;;;;;;5030635;28;20063;-75
2022/12/29 05:59:44;;;;;;;0.60;0.60;;;;;;;;;;5030587;28;20053;-75
2022/12/29 06:02:11;;;;;;;0.80;0.80;;;;;;;;;;5030668;28;20049;-75
2022/12/29 06:04:38;;;;;;;0.88;0.80;;;;;;;;;;5030956;28;20406;-75
2022/12/29 06:07:06;;;;;;;1.10;0.90;;;;;;;;;;5029266;28;20168;-75
2022/12/29 06:09:33;;;;;;;0.90;0.70;;;;;;;;;;5011210;28;20076;-75
2022/12/29 06:12:01;;;;;;;1.17;0.80;;;;;;;;;;5011052;28;20061;-75
2022/12/29 06:14:28;;;;;;;1.60;0.80;;;;;;;;;;5024592;28;20053;-75
2022/12/29 06:16:55;;;;;;;1.42;0.80;;;;;;;;;;5030609;28;20132;-75
2022/12/29 06:19:25;;;;;;;1.90;0.90;;;;;;;;;;5030211;28;20053;-75
2022/12/29 06:21:52;;;;;;;1.00;0.90;;;;;;;;;;5031066;28;20053;-75
2022/12/29 06:24:20;;;;;;;1.33;0.90;;;;;;;;;;5030183;28;20103;-75
2022/12/29 06:26:47;;;;;;;1.10;0.85;;;;;;;;;;5030574;28;20136;-75
2022/12/29 06:29:16;;;;;;;0.93;0.75;;;;;;;;;;5028485;28;20144;-75
2022/12/29 06:31:45;;;;;;;1.20;0.95;;;;;;;;;;5030289;28;20103;-75
2022/12/29 06:34:12;;;;;;;0.75;0.73;;;;;;;;;;5030438;28;20050;-75
2022/12/29 06:36:39;;;;;;;1.10;0.90;;;;;;;;;;5030186;28;20053;-75
2022/12/29 06:39:06;;;;;;;0.75;0.75;;;;;;;;;;5027367;28;20046;-75
2022/12/29 06:41:33;;;;;;;1.08;0.98;;;;;;;;;;5012685;28;20054;-75
2022/12/29 06:44:00;;;;;;;0.80;0.80;;;;;;;;;;5021494;28;20059;-75
2022/12/29 06:46:28;;;;;;;2.25;0.95;;;;;;;;;;5031534;28;20059;-75
2022/12/29 06:48:56;;;;;;;0.80;0.70;;;;;;;;;;5030199;28;20051;-75
2022/12/29 06:51:23;;;;;;;1.65;0.90;;;;;;;;;;5030632;28;20053;-75
2022/12/29 06:53:50;;;;;;;0.80;0.80;;;;;;;;;;5031249;28;20583;-75
2022/12/29 06:56:17;;;;;;;0.85;0.70;;;;;;;;;;5030432;28;20055;-75
2022/12/29 06:58:44;;;;;;;1.05;0.90;;;;;;;;;;5029897;28;20063;-75
2022/12/29 07:01:11;;;;;;;1.20;1.00;;;;;;;;;;5030457;28;20064;-75
2022/12/29 07:03:39;;;;;;;1.80;0.90;;;;;;;;;;5030343;28;20525;-75
2022/12/29 07:06:07;;;;;;;1.13;0.80;;;;;;;;;;5030264;28;20397;-75
2022/12/29 07:08:34;;;;;;;1.88;0.90;;;;;;;;;;5030387;28;20050;-75
2022/12/29 07:11:01;;;;;;;1.20;0.80;;;;;;;;;;5030183;28;20063;-75
2022/12/29 07:13:28;;;;;;;0.90;0.90;;;;;;;;;;5020655;28;20060;-75
2022/12/29 07:15:55;;;;;;;1.60;0.80;;;;;;;;;;5030247;28;20053;-75
2022/12/29 07:18:22;;;;;;;0.90;0.82;;;;;;;;;;5031430;28;20056;-75
2022/12/29 07:20:50;;;;;;;1.27;0.85;;;;;;;;;;5033516;28;20055;-74
2022/12/29 07:23:17;;;;;;;0.80;0.80;;;;;;;;;;5033617;28;20060;-75
2022/12/29 07:25:44;;;;;;;1.48;0.90;;;;;;;;;;5033998;28;20391;-75
2022/12/29 07:28:11;;;;;;;1.13;0.90;;;;;;;;;;5027338;28;20402;-75
2022/12/29 07:30:39;;;;;;;1.73;0.80;;;;;;;;;;5013696;28;20422;-75
2022/12/29 07:33:06;;;;;;;1.45;0.90;;;;;;;;;;5013372;28;20061;-75
2022/12/29 07:35:33;;;;;;;1.45;0.93;;;;;;;;;;5014063;28;20058;-75
2022/12/29 07:38:02;;;;;;;2.22;0.75;;;;;;;;;;5031283;28;20144;-75
2022/12/29 07:40:29;;;;;;;1.67;0.85;;;;;;;;;;5032750;28;20046;-75
2022/12/29 07:42:56;;;;;;;1.20;0.90;;;;;;;;;;5032700;28;20053;-75
2022/12/29 07:45:23;;;;;;;0.65;0.65;;;;;;;;;;5033127;28;20084;-75
2022/12/29 07:47:50;;;;;;;1.08;0.80;;;;;;;;;;5033281;28;20057;-75
2022/12/29 07:50:17;;;;;;;0.77;0.77;;;;;;;;;;5033105;28;20049;-75
2022/12/29 07:52:44;;;;;;;0.80;0.80;;;;;;;;;;5033111;28;20516;-75
2022/12/29 07:55:13;;;;;;;1.30;0.80;;;;;;;;;;5033003;28;20095;-75
2022/12/29 07:57:40;;;;;;;1.17;0.82;;;;;;;;;;5032112;28;20133;-75
2022/12/29 08:00:09;;;;;;;2.22;0.90;;;;;;;;;;5028117;28;20044;-75
2022/12/29 08:02:36;;;;;;;1.13;0.80;;;;;;;;;;5023735;28;20053;-75
2022/12/29 08:05:03;;;;;;;0.82;0.80;;;;;;;;;;5033125;28;20161;-75
2022/12/29 08:07:30;;;;;;;1.05;0.70;;;;;;;;;;5032680;28;20088;-75
2022/12/29 08:09:57;;;;;;;2.13;0.90;;;;;;;;;;5033947;28;20132;-75
2022/12/29 08:12:26;;;;;;;2.05;1.00;;;;;;;;;;5022481;28;20129;-74
2022/12/29 08:14:53;;;;;;;1.67;0.90;;;;;;;;;;5021813;28;20057;-75
2022/12/29 08:17:20;;;;;;;1.80;1.00;;;;;;;;;;5023488;28;20171;-75
2022/12/29 08:19:47;;;;;;;1.70;0.90;;;;;;;;;;5018956;28;20067;-75
2022/12/29 08:22:14;;;;;;;2.25;0.88;;;;;;;;;;5022753;28;20064;-75
2022/12/29 08:24:41;;;;;;;1.45;0.90;;;;;;;;;;5020368;28;20049;-75
2022/12/29 08:27:08;;;;;;;1.30;0.80;;;;;;;;;;5023081;28;20404;-75
2022/12/29 08:29:37;;;;;;;1.25;0.88;;;;;;;;;;5022707;28;20050;-75
2022/12/29 08:32:04;;;;;;;2.03;0.98;;;;;;;;;;5018378;28;20052;-75
2022/12/29 08:34:31;;;;;;;1.52;0.80;;;;;;;;;;5014116;28;20502;-75
2022/12/29 08:36:58;;;;;;;1.75;0.90;;;;;;;;;;5026208;28;20391;-75
2022/12/29 08:39:26;;;;;;;1.38;0.90;;;;;;;;;;5020352;28;20406;-75
2022/12/29 08:41:53;;;;;;;1.98;0.90;;;;;;;;;;5043725;28;20059;-75
2022/12/29 08:44:20;;;;;;;3.13;0.90;;;;;;;;;;5023049;28;20045;-75
2022/12/29 08:46:48;;;;;;;1.00;0.80;;;;;;;;;;5021952;28;20144;-75
2022/12/29 08:49:15;;;;;;;2.03;0.90;;;;;;;;;;5021985;28;20046;-75
2022/12/29 08:51:43;;;;;;;1.98;0.90;;;;;;;;;;5022996;28;20037;-75
2022/12/29 08:54:10;;;;;;;1.02;0.77;;;;;;;;;;5024247;28;20084;-75
2022/12/29 08:56:37;;;;;;;2.78;1.20;;;;;;;;;;5020638;28;20056;-75
2022/12/29 08:59:04;;;;;;;1.27;0.82;;;;;;;;;;5021419;28;20072;-75
2022/12/29 09:01:31;;;;;;;2.50;1.00;;;;;;;;;;5023322;28;20049;-75
2022/12/29 09:03:59;;;;;;;0.95;0.70;;;;;;;;;;5022001;28;20057;-75
2022/12/29 09:06:26;;;;;;;1.27;0.90;;;;;;;;;;5021945;28;20056;-75
2022/12/29 09:08:55;;;;;;;1.40;0.80;;;;;;;;;;5025458;28;20056;-75
2022/12/29 09:11:23;;;;;;;1.88;1.05;;;14.50;69.00;;;;;;5015730;28;20053;-75
2022/12/29 09:13:50;;;;;;;1.70;1.00;;;;;;;;;;5015298;28;20132;-75
2022/12/29 09:16:17;;;;;;;0.90;0.80;;;;;;;;;;5014192;28;20669;-75
2022/12/29 09:18:45;;;;;;;2.20;0.95;;;;;;;;;;5015005;28;20057;-75
2022/12/29 09:21:13;;;;;;;1.67;0.90;;;;;;;;;;5021165;28;20072;-75
2022/12/29 09:23:40;;;;;;;0.68;0.63;;;;;;;;;;5017389;28;20045;-76
2022/12/29 09:26:07;;;;;;;1.40;0.77;;;;;;;;;;5020639;28;20068;-75
2022/12/29 09:28:35;;;;;;;1.00;0.80;;;;;;;;;;5022008;28;20041;-75
2022/12/29 09:31:02;;;;;;;1.98;0.80;;;;;;;;;;5027733;28;20149;-76
2022/12/29 09:33:29;;;;;;;1.60;1.00;;;;;;;;;;5024183;28;20410;-75
2022/12/29 09:35:57;;;;;;;2.80;1.33;;;14.70;69.60;;;;;;5024866;28;20057;-75
2022/12/29 09:38:25;;;;;;;1.95;0.80;;;;;;;;;;5031059;28;20433;-75
2022/12/29 09:40:55;;;;;;;1.27;0.82;;;;;;;;;;5024685;28;20080;-75
2022/12/29 09:43:26;;;;;;;1.10;0.82;;;;;;;;;;5019507;28;20080;-76
2022/12/29 09:45:54;;;;;;;3.00;0.90;;;;;;;;;;5022803;28;20064;-75
2022/12/29 09:48:22;;;;;;;2.45;0.90;;;;;;;;;;5022604;28;20491;-75
2022/12/29 09:50:50;;;;;;;1.88;0.90;;;;;;;;;;5022297;28;20053;-75
2022/12/29 09:53:19;;;;;;;2.50;0.90;;;;;;;;;;5021690;28;20064;-75
2022/12/29 09:55:48;;;;;;;1.35;0.93;;;;;;;;;;5020738;28;20057;-75
2022/12/29 09:58:16;;;;;;;1.58;0.90;;;;;;;;;;5019499;28;20062;-75
2022/12/29 10:00:45;;;;;;;1.50;0.90;;;;;;;;;;5023616;28;20132;-75
2022/12/29 10:03:15;;;;;;;1.75;0.90;;;14.90;70.30;;;;;;5022928;28;20049;-75
2022/12/29 10:05:44;;;;;;;2.15;1.20;;;;;;;;;;5019634;28;20591;-75
2022/12/29 10:08:20;;;;;;;1.58;0.80;;;14.90;70.30;;;;;;5021295;28;20052;-75
2022/12/29 10:10:51;;;;;;;2.30;1.00;;;14.80;70.20;;;;;;5019645;28;20135;-75
2022/12/29 10:13:28;;;;;;;2.00;0.98;;;14.90;70.30;;;;;;5021899;28;20084;-74
2022/12/29 10:15:58;;;;;;;2.08;0.85;;;;;;;;;;5022792;28;20144;-75
2022/12/29 10:18:33;;;;;;;2.03;0.90;;;;;;;;;;5016891;28;20045;-76
2022/12/29 10:21:01;;;;;;;;;;;14.90;70.70;;;;;;5022296;28;20585;-75
2022/12/29 10:23:28;;;;;;;1.58;0.80;;;;;;;;;;5022920;28;19921;-75
2022/12/29 10:25:57;;;;;;;1.10;0.90;;;;;;;;;;5024346;28;20056;-75
2022/12/29 10:28:25;;;;;;;1.92;0.90;;;;;;;;;;5017802;28;20455;-75
2022/12/29 10:30:53;;;;;;;2.20;1.08;;;;;;;;;;5024211;28;20077;-75
2022/12/29 10:33:21;;;;;;;1.58;0.95;;;;;;;;;;5022276;28;20053;-75
2022/12/29 10:35:48;;;;;;;2.08;0.90;;;;;;;;;;5018270;28;20060;-76
2022/12/29 10:38:17;;;;;;;1.45;0.85;;;;;;;;;;5021772;28;20551;-75
2022/12/29 10:40:46;;;;;;;1.63;0.82;;;15.10;69.60;;;;;;5019755;28;20061;-75
2022/12/29 10:43:20;;;;;;;1.33;0.80;;;15.10;70.20;;;;;;5022403;28;20056;-75
2022/12/29 10:45:47;;;;;;;1.42;0.80;;;;;;;;;;5026401;28;20129;-75
2022/12/29 10:48:16;;;;;;;1.90;1.00;;;15.10;69.30;;;;;;5020154;28;20045;-75
2022/12/29 10:50:43;;;;;;;2.13;0.85;;;;;;;;;;5042128;28;20149;-75
2022/12/29 10:53:13;;;;;;;1.52;0.80;;;;;;;;;;5023985;28;20060;-75
2022/12/29 10:55:40;;;;;;;1.27;0.73;;;;;;;;;;5026726;28;20055;-75
2022/12/29 10:58:08;;;;;;;1.80;0.85;;;;;;;;;;5023029;28;20056;-75
2022/12/29 11:00:36;;;;;;;1.65;1.00;;;;;;;;;;5016830;28;20527;-75
2022/12/29 11:03:10;;;;;;;1.35;0.90;;;;;;;;;;5026952;28;20136;-75
2022/12/29 11:05:38;;;;;;;2.08;0.98;;;;;;;;;;5023963;28;20049;-75
2022/12/29 11:08:11;;;;;;;1.92;0.98;;;15.20;70.20;;;;;;5023067;28;20060;-75
2022/12/29 11:10:39;;;;;;;1.70;1.40;;;;;;;;;;5027028;28;20056;-75
2022/12/29 11:13:12;;;;;;;2.22;1.00;;;15.20;70.10;;;;;;5028774;28;20103;-75
2022/12/29 11:15:41;;;;;;;1.90;0.95;;;;;;;;;;5024756;28;20054;-75
2022/12/29 11:18:21;;;;;;;1.60;1.02;;;15.20;70.10;;;;;;5025633;28;20067;-75
2022/12/29 11:20:49;;;;;;;1.77;0.93;;;;;;;;;;5023342;28;20050;-75
2022/12/29 11:23:26;;;;;;;1.70;1.13;;;;;;;;;;5023785;28;20124;-75
2022/12/29 11:26:23;;;;;;;1.88;0.85;;;;;;;;;;5038366;28;20053;-75
2022/12/29 11:29:05;;;;;;;0.90;0.70;;;;;;;;;;4926712;29;20060;-75
2022/12/29 11:31:40;;;;;;;1.48;0.80;;;15.00;70.10;;;;;;5012112;28;20073;-75
2022/12/29 11:34:08;;;;;;;1.67;1.10;;;;;;;;;;5021901;28;20068;-75
2022/12/29 11:36:35;;;;;;;1.52;1.00;;;;;;;;;;5024550;28;20050;-75
2022/12/29 11:39:02;;;;;;;1.40;1.00;;;;;;;;;;5022966;28;20053;-75
2022/12/29 11:41:29;;;;;;;1.75;1.13;;;;;;;;;;5023711;28;20051;-75
2022/12/29 11:43:57;;;;;;;2.13;1.00;;;14.90;68.50;;;;;;5019743;28;20137;-75
2022/12/29 11:46:25;;;;;;;2.25;0.90;;;14.90;69.50;;;;;;5023580;28;20137;-75
2022/12/29 11:48:58;;;;;;;2.05;0.90;;;;;;;;;;5022129;28;20132;-75
2022/12/29 11:51:25;;;;;;;1.70;0.88;;;;;;;;;;5021819;28;20054;-75
2022/12/29 11:53:53;;;;;;;1.77;1.00;;;14.90;69.10;;;;;;5019318;28;20402;-75
2022/12/29 11:56:22;;;;;;;1.98;0.82;;;;;;;;;;5025574;28;20045;-75
2022/12/29 11:58:49;;;;;;;2.40;0.90;;;;;;;;;;5021025;28;20133;-75
2022/12/29 12:01:17;;;;;;;1.73;0.85;;;;;;;;;;5026892;28;20088;-75
2022/12/29 12:03:46;;;;;;;1.27;0.80;;;14.80;70.70;;;;;;5027019;28;20064;-75
2022/12/29 12:06:16;;;;;;;2.63;0.93;;;14.70;70.70;;;;;;5030379;28;20057;-75
2022/12/29 12:08:46;;;;;;;3.63;0.93;;;14.80;70.80;;;;;;5032839;28;20418;-74
2022/12/29 12:11:14;;;;;;;3.97;1.00;;;14.70;70.30;;;;;;5032759;28;20128;-76
2022/12/29 12:13:43;;;;;;;2.38;1.02;;;;;;;;;;5027637;28;20054;-75
2022/12/29 12:16:11;;;;;;;2.58;1.10;;;;;;;;;;5033227;28;20077;-74
2022/12/29 12:18:41;;;;;;;2.78;1.15;;;;;;;;;;5032645;28;20045;-74
2022/12/29 12:21:11;;;;;;;1.08;0.80;;;14.60;70.80;;;;;;5033121;28;20133;-74
2022/12/29 12:23:42;;;;;;;1.95;1.08;;;;;;;;;;5032466;28;20060;-73
2022/12/29 12:26:11;;;;;;;1.45;0.90;;;;;;;;;;5026898;28;20085;-75
2022/12/29 12:28:39;;;;;;;1.85;1.20;;;;;;;;;;5012929;28;20508;-74
2022/12/29 12:31:07;;;;;;;1.70;0.90;;;;;;;;;;5012762;28;20140;-74
2022/12/29 12:33:35;;;;;;;1.15;0.90;;;;;;;;;;5012662;28;20137;-74
2022/12/29 12:36:15;;;;;;;2.03;0.90;;;14.70;71.00;;;;;;5013729;28;20066;-74
2022/12/29 12:38:45;;;;;;;1.52;0.85;;;;;;;;;;5021097;28;20049;-74
2022/12/29 12:41:13;;;;;;;2.03;1.00;;;;;;;;;;5013058;28;20041;-75
2022/12/29 12:43:45;;;;;;;2.67;1.00;;;14.70;71.00;;;;;;5015036;28;20061;-75
2022/12/29 12:46:19;;;;;;;3.38;0.90;;;;;;;;;;5019554;28;20132;-74
2022/12/29 12:48:50;;;;;;;1.73;0.98;;;;;;;;;;5012251;28;20542;-75
2022/12/29 12:51:20;;;;;;;3.10;0.90;;;14.70;71.00;;;;;;5012348;28;20132;-75
2022/12/29 12:53:51;;;;;;;2.00;0.90;;;;;;;;;;5012073;28;20050;-74
2022/12/29 12:56:43;;;;;;;3.15;0.80;;;14.60;68.80;;;;;;5025987;28;20053;-75
2022/12/29 12:59:15;;;;;;;4.28;1.25;;;14.60;71.00;;;;;;5031847;28;20122;-76
2022/12/29 13:01:44;;;;;;;6.60;1.60;;;;;;;;;;5030053;28;20055;-74
2022/12/29 13:04:34;;;;;;;5.32;1.15;;;14.60;71.00;;;;;;5018448;28;20582;-74
2022/12/29 13:07:03;;;;;;;7.60;1.60;;;;;;;;;;5011988;28;20054;-75
2022/12/29 13:09:34;;;;;;;6.60;1.75;;;;;;;;;;5031232;28;20136;-74
2022/12/29 13:12:08;;;;;;;7.53;1.80;;;14.70;71.20;;;;;;5031823;28;20062;-74
2022/12/29 13:14:38;;;;;;;3.75;1.70;;;;;;;;;;5033012;28;20053;-74
2022/12/29 13:17:08;;;;;;;7.95;1.77;;;14.60;71.20;;;;;;5030757;28;20558;-74
2022/12/29 13:19:36;;;;;;;8.60;1.77;;;;;;;;;;5031447;28;20057;-74
2022/12/29 13:22:05;;;;;;;6.80;1.83;;;;;;;;;;5030621;28;20048;-74
2022/12/29 13:24:36;;;;;;;4.90;1.60;;;;;;;;;;5029990;28;20069;-74
2022/12/29 13:27:05;;;;;;;6.10;1.90;;;;;;;;;;5031405;28;20504;-74
2022/12/29 13:29:33;;;;;;;9.82;2.20;;;;;;;;;;5031445;28;20136;-74
2022/12/29 13:32:02;;;;;;;7.18;1.65;;;;;;;;;;5031158;28;20049;-74
2022/12/29 13:34:31;;;;;;;7.22;1.90;;;;;;;;;;5031332;28;20063;-74
2022/12/29 13:36:58;;;;;;;8.90;1.88;;;;;;;;;;5029829;28;20049;-74
2022/12/29 13:39:26;;;;;;;9.80;1.60;;;;;;;;;;5014241;28;20056;-74
2022/12/29 13:41:55;;;;;;;5.63;1.90;;;;;;;;;;5011238;28;20060;-75
2022/12/29 13:44:23;;;;;;;7.57;1.80;;;;;;;;;;5010832;28;20494;-74
2022/12/29 13:46:50;;;;;;;5.40;1.55;;;;;;;;;;5011436;28;20068;-74
2022/12/29 13:49:18;;;;;;;6.97;1.70;;;;;;;;;;5017193;28;20100;-75
2022/12/29 13:51:49;;;;;;;6.20;1.92;;;14.60;71.70;;;;;;5015186;28;20046;-74
2022/12/29 13:54:22;;;;;;;7.80;2.10;;;14.50;71.60;;;;;;5030807;28;20063;-74
2022/12/29 13:56:50;;;;;;;5.35;1.80;;;14.40;71.70;;;;;;5031316;28;20071;-74
2022/12/29 13:59:21;;;;;;;6.22;1.80;;;;;;;;;;5031109;28;20049;-74
2022/12/29 14:01:50;;;;;;;5.13;1.58;;;;;;;;;;5030437;28;20554;-74
2022/12/29 14:04:22;;;;;;;4.97;1.85;;;;;;;;;;5031925;28;20055;-74
2022/12/29 14:06:49;;;;;;;4.78;1.73;;;;;;;;;;5022571;28;20060;-74
2022/12/29 14:09:43;;;;;;;6.10;1.83;;;14.40;69.80;;;;;;5015564;28;20046;-74
2022/12/29 14:12:33;;;;;;;7.75;1.75;;;;;;;;;;5030749;28;20049;-75
2022/12/29 14:15:08;;;;;;;7.90;1.83;;;;;;;;;;5031774;28;20056;-74
2022/12/29 14:17:35;;;;;;;5.68;1.67;;;;;;;;;;5030700;28;20053;-74
2022/12/29 14:20:03;;;;;;;5.00;1.75;;;;;;;;;;5030195;28;20057;-75
2022/12/29 14:22:31;;;;;;;4.55;1.50;;;;;;;;;;5030046;28;20053;-74
2022/12/29 14:24:58;;;;;;;3.65;1.60;;;;;;;;;;5030825;28;20081;-74
2022/12/29 14:27:44;;;;;;;5.47;1.92;;;14.40;68.30;;;;;;5032349;28;20059;-74
2022/12/29 14:30:48;;;;;;;5.18;1.63;;;14.30;71.90;;;;;;5034826;28;20494;-74
2022/12/29 14:33:15;;;;;;;3.80;1.60;;;;;;;;;;5033961;28;20046;-74
2022/12/29 14:35:43;;;;;;;6.20;1.80;;;;;;;;;;5020065;28;20062;-74
2022/12/29 14:38:29;;;;;;;6.22;1.67;;;;;;;;;;5033838;28;20512;-74
2022/12/29 14:41:15;;;;;;;3.28;1.40;;;;;;;;;;5034131;28;20053;-74
2022/12/29 14:43:42;;;;;;;4.53;1.48;;;;;;;;;;5034326;28;20053;-74
2022/12/29 14:46:10;;;;;;;3.88;1.60;;;;;;;;;;5035236;28;20137;-74
2022/12/29 14:48:39;;;;;;;3.28;1.45;;;14.20;70.00;;;;;;5034765;28;20049;-74
2022/12/29 14:51:19;;;;;;;7.13;1.80;;;;;;;;;;5034089;28;20049;-74
2022/12/29 14:53:47;;;;;;;6.03;1.85;;;;;;;;;;5033913;28;20053;-74
2022/12/29 14:56:15;;;;;;;5.10;1.60;;;;;;;;;;5034168;28;20140;-74
2022/12/29 14:58:45;;;;;;;4.38;1.63;;;14.20;71.80;;;;;;5033971;28;20063;-74
2022/12/29 15:01:19;;;;;;;5.05;1.50;;;14.20;71.10;;;;;;5033768;28;20395;-74
2022/12/29 15:03:47;;;;;;;3.67;1.60;;;;;;;;;;5033246;28;20123;-74
2022/12/29 15:06:16;;;;;;;5.50;1.85;;;;;;;;;;5035094;28;20049;-75